sensor_id;sensor_type;location;lat;lon;timestamp;P1;durP1;ratioP1;P2;durP2;ratioP2
49910;SDS011;35803;53.096;5.844;2024-02-23T00:02:23;0.60;;;0.50;;
49910;SDS011;35803;53.096;5.844;2024-02-23T00:05:12;1.95;;;0.82;;
49910;SDS011;35803;53.096;5.844;2024-02-23T00:07:58;1.40;;;0.63;;
49910;SDS011;35803;53.096;5.844;2024-02-23T00:10:44;1.05;;;0.60;;
49910;SDS011;35803;53.096;5.844;2024-02-23T00:13:30;2.75;;;0.90;;
49910;SDS011;35803;53.096;5.844;2024-02-23T00:16:15;2.17;;;0.68;;
49910;SDS011;35803;53.096;5.844;2024-02-23T00:19:01;4.78;;;0.95;;
49910;SDS011;35803;53.096;5.844;2024-02-23T00:21:47;2.55;;;0.65;;
49910;SDS011;35803;53.096;5.844;2024-02-23T00:24:35;2.88;;;1.50;;
49910;SDS011;35803;53.096;5.844;2024-02-23T00:27:22;1.73;;;0.90;;
49910;SDS011;35803;53.096;5.844;2024-02-23T00:30:08;3.13;;;0.90;;
49910;SDS011;35803;53.096;5.844;2024-02-23T00:32:53;1.95;;;1.10;;
49910;SDS011;35803;53.096;5.844;2024-02-23T00:35:39;5.03;;;0.90;;
49910;SDS011;35803;53.096;5.844;2024-02-23T00:38:25;3.38;;;0.77;;
49910;SDS011;35803;53.096;5.844;2024-02-23T00:41:11;1.50;;;0.95;;
49910;SDS011;35803;53.096;5.844;2024-02-23T00:43:56;5.50;;;1.10;;
49910;SDS011;35803;53.096;5.844;2024-02-23T00:46:42;2.35;;;0.80;;
49910;SDS011;35803;53.096;5.844;2024-02-23T00:49:28;1.75;;;1.08;;
49910;SDS011;35803;53.096;5.844;2024-02-23T00:52:14;4.85;;;1.30;;
49910;SDS011;35803;53.096;5.844;2024-02-23T00:55:01;5.20;;;1.33;;
49910;SDS011;35803;53.096;5.844;2024-02-23T00:57:46;3.80;;;1.25;;
49910;SDS011;35803;53.096;5.844;2024-02-23T01:00:34;4.50;;;1.60;;
49910;SDS011;35803;53.096;5.844;2024-02-23T01:03:20;10.70;;;1.30;;
49910;SDS011;35803;53.096;5.844;2024-02-23T01:06:06;7.75;;;1.30;;
49910;SDS011;35803;53.096;5.844;2024-02-23T01:08:52;10.85;;;1.70;;
49910;SDS011;35803;53.096;5.844;2024-02-23T01:11:38;5.68;;;1.63;;
49910;SDS011;35803;53.096;5.844;2024-02-23T01:14:24;10.77;;;1.50;;
49910;SDS011;35803;53.096;5.844;2024-02-23T01:17:10;9.43;;;1.60;;
49910;SDS011;35803;53.096;5.844;2024-02-23T01:19:56;7.22;;;1.60;;
49910;SDS011;35803;53.096;5.844;2024-02-23T01:22:42;3.70;;;1.40;;
49910;SDS011;35803;53.096;5.844;2024-02-23T01:25:28;3.85;;;1.40;;
49910;SDS011;35803;53.096;5.844;2024-02-23T01:28:14;9.98;;;1.88;;
49910;SDS011;35803;53.096;5.844;2024-02-23T01:31:00;9.70;;;1.80;;
49910;SDS011;35803;53.096;5.844;2024-02-23T01:33:46;12.32;;;2.67;;
49910;SDS011;35803;53.096;5.844;2024-02-23T01:36:32;4.80;;;1.42;;
49910;SDS011;35803;53.096;5.844;2024-02-23T01:39:18;9.70;;;2.00;;
49910;SDS011;35803;53.096;5.844;2024-02-23T01:42:04;12.10;;;1.60;;
49910;SDS011;35803;53.096;5.844;2024-02-23T01:44:50;8.00;;;1.60;;
49910;SDS011;35803;53.096;5.844;2024-02-23T01:47:35;8.27;;;1.33;;
49910;SDS011;35803;53.096;5.844;2024-02-23T01:50:21;3.88;;;1.40;;
49910;SDS011;35803;53.096;5.844;2024-02-23T01:53:08;6.13;;;1.52;;
49910;SDS011;35803;53.096;5.844;2024-02-23T01:55:56;9.20;;;1.65;;
49910;SDS011;35803;53.096;5.844;2024-02-23T01:58:43;7.90;;;1.65;;
49910;SDS011;35803;53.096;5.844;2024-02-23T02:01:30;4.35;;;1.50;;
49910;SDS011;35803;53.096;5.844;2024-02-23T02:04:16;8.15;;;2.10;;
49910;SDS011;35803;53.096;5.844;2024-02-23T02:07:02;5.65;;;1.58;;
49910;SDS011;35803;53.096;5.844;2024-02-23T02:09:47;4.63;;;1.60;;
49910;SDS011;35803;53.096;5.844;2024-02-23T02:12:33;4.13;;;1.48;;
49910;SDS011;35803;53.096;5.844;2024-02-23T02:15:19;6.95;;;1.50;;
49910;SDS011;35803;53.096;5.844;2024-02-23T02:18:07;7.22;;;1.50;;
49910;SDS011;35803;53.096;5.844;2024-02-23T02:20:56;5.75;;;1.38;;
49910;SDS011;35803;53.096;5.844;2024-02-23T02:23:43;4.63;;;1.50;;
49910;SDS011;35803;53.096;5.844;2024-02-23T02:26:29;5.32;;;1.35;;
49910;SDS011;35803;53.096;5.844;2024-02-23T02:29:15;2.00;;;1.20;;
49910;SDS011;35803;53.096;5.844;2024-02-23T02:32:00;2.08;;;1.10;;
49910;SDS011;35803;53.096;5.844;2024-02-23T02:34:46;6.75;;;1.38;;
49910;SDS011;35803;53.096;5.844;2024-02-23T02:37:32;7.38;;;1.50;;
49910;SDS011;35803;53.096;5.844;2024-02-23T02:40:18;7.28;;;1.65;;
49910;SDS011;35803;53.096;5.844;2024-02-23T02:43:03;12.15;;;1.52;;
49910;SDS011;35803;53.096;5.844;2024-02-23T02:45:50;9.82;;;1.88;;
49910;SDS011;35803;53.096;5.844;2024-02-23T02:48:35;7.10;;;1.35;;
49910;SDS011;35803;53.096;5.844;2024-02-23T02:51:21;4.20;;;1.17;;
49910;SDS011;35803;53.096;5.844;2024-02-23T02:54:07;7.50;;;1.20;;
49910;SDS011;35803;53.096;5.844;2024-02-23T02:56:53;6.28;;;1.42;;
49910;SDS011;35803;53.096;5.844;2024-02-23T02:59:39;3.88;;;1.30;;
49910;SDS011;35803;53.096;5.844;2024-02-23T03:02:25;6.93;;;1.30;;
49910;SDS011;35803;53.096;5.844;2024-02-23T03:05:11;7.63;;;1.10;;
49910;SDS011;35803;53.096;5.844;2024-02-23T03:07:57;7.22;;;1.33;;
49910;SDS011;35803;53.096;5.844;2024-02-23T03:10:42;6.40;;;1.10;;
49910;SDS011;35803;53.096;5.844;2024-02-23T03:13:28;4.65;;;1.17;;
49910;SDS011;35803;53.096;5.844;2024-02-23T03:16:17;8.75;;;1.58;;
49910;SDS011;35803;53.096;5.844;2024-02-23T03:19:03;6.78;;;1.33;;
49910;SDS011;35803;53.096;5.844;2024-02-23T03:21:49;4.93;;;1.08;;
49910;SDS011;35803;53.096;5.844;2024-02-23T03:24:35;2.88;;;1.13;;
49910;SDS011;35803;53.096;5.844;2024-02-23T03:27:26;4.97;;;1.05;;
49910;SDS011;35803;53.096;5.844;2024-02-23T03:30:13;3.47;;;0.90;;
49910;SDS011;35803;53.096;5.844;2024-02-23T03:32:59;5.85;;;1.50;;
49910;SDS011;35803;53.096;5.844;2024-02-23T03:35:45;4.25;;;1.00;;
49910;SDS011;35803;53.096;5.844;2024-02-23T03:38:31;3.85;;;1.00;;
49910;SDS011;35803;53.096;5.844;2024-02-23T03:41:17;3.10;;;1.10;;
49910;SDS011;35803;53.096;5.844;2024-02-23T03:44:02;4.68;;;1.08;;
49910;SDS011;35803;53.096;5.844;2024-02-23T03:46:48;9.52;;;1.42;;
49910;SDS011;35803;53.096;5.844;2024-02-23T03:49:34;8.43;;;1.10;;
49910;SDS011;35803;53.096;5.844;2024-02-23T03:52:20;3.08;;;0.80;;
49910;SDS011;35803;53.096;5.844;2024-02-23T03:55:05;5.18;;;1.15;;
49910;SDS011;35803;53.096;5.844;2024-02-23T03:57:51;3.72;;;1.00;;
49910;SDS011;35803;53.096;5.844;2024-02-23T04:00:37;2.65;;;1.05;;
49910;SDS011;35803;53.096;5.844;2024-02-23T04:03:23;7.65;;;1.70;;
49910;SDS011;35803;53.096;5.844;2024-02-23T04:06:09;5.55;;;1.00;;
49910;SDS011;35803;53.096;5.844;2024-02-23T04:08:55;8.63;;;1.20;;
49910;SDS011;35803;53.096;5.844;2024-02-23T04:11:41;2.45;;;0.80;;
49910;SDS011;35803;53.096;5.844;2024-02-23T04:14:26;5.65;;;0.82;;
49910;SDS011;35803;53.096;5.844;2024-02-23T04:17:12;2.78;;;0.90;;
49910;SDS011;35803;53.096;5.844;2024-02-23T04:19:59;4.07;;;0.80;;
49910;SDS011;35803;53.096;5.844;2024-02-23T04:22:46;4.45;;;1.10;;
49910;SDS011;35803;53.096;5.844;2024-02-23T04:25:31;3.05;;;0.95;;
49910;SDS011;35803;53.096;5.844;2024-02-23T04:28:20;5.82;;;1.42;;
49910;SDS011;35803;53.096;5.844;2024-02-23T04:31:05;5.15;;;1.52;;
49910;SDS011;35803;53.096;5.844;2024-02-23T04:33:51;4.55;;;0.77;;
49910;SDS011;35803;53.096;5.844;2024-02-23T04:36:37;5.72;;;0.85;;
49910;SDS011;35803;53.096;5.844;2024-02-23T04:39:23;8.93;;;1.20;;
49910;SDS011;35803;53.096;5.844;2024-02-23T04:42:08;6.72;;;1.00;;
49910;SDS011;35803;53.096;5.844;2024-02-23T04:44:54;11.48;;;0.95;;
49910;SDS011;35803;53.096;5.844;2024-02-23T04:47:40;3.70;;;1.00;;
49910;SDS011;35803;53.096;5.844;2024-02-23T04:50:26;4.20;;;1.02;;
49910;SDS011;35803;53.096;5.844;2024-02-23T04:53:11;3.42;;;0.80;;
49910;SDS011;35803;53.096;5.844;2024-02-23T04:55:57;7.22;;;1.20;;
49910;SDS011;35803;53.096;5.844;2024-02-23T04:58:43;2.60;;;0.85;;
49910;SDS011;35803;53.096;5.844;2024-02-23T05:01:29;6.75;;;1.33;;
49910;SDS011;35803;53.096;5.844;2024-02-23T05:04:20;2.50;;;0.70;;
49910;SDS011;35803;53.096;5.844;2024-02-23T05:07:06;7.60;;;1.08;;
49910;SDS011;35803;53.096;5.844;2024-02-23T05:09:52;6.65;;;1.08;;
49910;SDS011;35803;53.096;5.844;2024-02-23T05:12:37;3.15;;;1.08;;
49910;SDS011;35803;53.096;5.844;2024-02-23T05:15:23;3.95;;;1.00;;
49910;SDS011;35803;53.096;5.844;2024-02-23T05:18:09;3.80;;;1.13;;
49910;SDS011;35803;53.096;5.844;2024-02-23T05:20:54;2.38;;;0.95;;
49910;SDS011;35803;53.096;5.844;2024-02-23T05:23:41;9.90;;;1.85;;
49910;SDS011;35803;53.096;5.844;2024-02-23T05:26:26;2.78;;;0.90;;
49910;SDS011;35803;53.096;5.844;2024-02-23T05:29:12;6.20;;;1.25;;
49910;SDS011;35803;53.096;5.844;2024-02-23T05:32:03;4.35;;;0.88;;
49910;SDS011;35803;53.096;5.844;2024-02-23T05:34:49;2.85;;;1.23;;
49910;SDS011;35803;53.096;5.844;2024-02-23T05:37:36;7.15;;;1.20;;
49910;SDS011;35803;53.096;5.844;2024-02-23T05:40:22;4.07;;;0.90;;
49910;SDS011;35803;53.096;5.844;2024-02-23T05:43:08;7.68;;;1.15;;
49910;SDS011;35803;53.096;5.844;2024-02-23T05:45:54;3.83;;;1.23;;
49910;SDS011;35803;53.096;5.844;2024-02-23T05:48:42;5.40;;;1.00;;
49910;SDS011;35803;53.096;5.844;2024-02-23T05:51:28;6.30;;;1.00;;
49910;SDS011;35803;53.096;5.844;2024-02-23T05:54:14;9.88;;;1.30;;
49910;SDS011;35803;53.096;5.844;2024-02-23T05:57:00;4.72;;;1.20;;
49910;SDS011;35803;53.096;5.844;2024-02-23T05:59:46;4.22;;;1.17;;
49910;SDS011;35803;53.096;5.844;2024-02-23T06:02:32;9.07;;;1.23;;
49910;SDS011;35803;53.096;5.844;2024-02-23T06:05:18;4.60;;;1.65;;
49910;SDS011;35803;53.096;5.844;2024-02-23T06:08:03;6.40;;;2.80;;
49910;SDS011;35803;53.096;5.844;2024-02-23T06:10:49;9.18;;;2.90;;
49910;SDS011;35803;53.096;5.844;2024-02-23T06:13:35;9.70;;;2.70;;
49910;SDS011;35803;53.096;5.844;2024-02-23T06:16:21;8.32;;;3.25;;
49910;SDS011;35803;53.096;5.844;2024-02-23T06:19:07;8.45;;;2.67;;
49910;SDS011;35803;53.096;5.844;2024-02-23T06:21:53;4.93;;;2.55;;
49910;SDS011;35803;53.096;5.844;2024-02-23T06:24:38;6.47;;;2.47;;
49910;SDS011;35803;53.096;5.844;2024-02-23T06:27:24;5.43;;;2.15;;
49910;SDS011;35803;53.096;5.844;2024-02-23T06:30:10;6.90;;;2.20;;
49910;SDS011;35803;53.096;5.844;2024-02-23T06:32:56;4.55;;;2.10;;
49910;SDS011;35803;53.096;5.844;2024-02-23T06:35:42;5.00;;;2.38;;
49910;SDS011;35803;53.096;5.844;2024-02-23T06:38:28;6.88;;;2.67;;
49910;SDS011;35803;53.096;5.844;2024-02-23T06:41:14;10.35;;;2.83;;
49910;SDS011;35803;53.096;5.844;2024-02-23T06:44:00;6.63;;;3.25;;
49910;SDS011;35803;53.096;5.844;2024-02-23T06:46:46;8.60;;;2.97;;
49910;SDS011;35803;53.096;5.844;2024-02-23T06:49:31;7.35;;;3.83;;
49910;SDS011;35803;53.096;5.844;2024-02-23T06:52:17;7.57;;;3.60;;
49910;SDS011;35803;53.096;5.844;2024-02-23T06:55:03;8.40;;;3.67;;
49910;SDS011;35803;53.096;5.844;2024-02-23T06:57:50;8.73;;;3.67;;
49910;SDS011;35803;53.096;5.844;2024-02-23T07:00:36;8.13;;;3.40;;
49910;SDS011;35803;53.096;5.844;2024-02-23T07:03:21;11.00;;;3.97;;
49910;SDS011;35803;53.096;5.844;2024-02-23T07:06:07;6.10;;;3.40;;
49910;SDS011;35803;53.096;5.844;2024-02-23T07:08:55;5.75;;;3.10;;
49910;SDS011;35803;53.096;5.844;2024-02-23T07:11:41;5.97;;;3.92;;
49910;SDS011;35803;53.096;5.844;2024-02-23T07:14:28;11.65;;;3.42;;
49910;SDS011;35803;53.096;5.844;2024-02-23T07:17:17;7.07;;;2.63;;
49910;SDS011;35803;53.096;5.844;2024-02-23T07:20:03;7.15;;;2.90;;
49910;SDS011;35803;53.096;5.844;2024-02-23T07:22:51;5.95;;;2.53;;
49910;SDS011;35803;53.096;5.844;2024-02-23T07:25:36;6.32;;;2.25;;
49910;SDS011;35803;53.096;5.844;2024-02-23T07:28:22;5.38;;;2.10;;
49910;SDS011;35803;53.096;5.844;2024-02-23T07:31:09;4.35;;;2.30;;
49910;SDS011;35803;53.096;5.844;2024-02-23T07:33:55;4.35;;;2.40;;
49910;SDS011;35803;53.096;5.844;2024-02-23T07:36:41;9.55;;;2.65;;
49910;SDS011;35803;53.096;5.844;2024-02-23T07:39:28;5.30;;;2.65;;
49910;SDS011;35803;53.096;5.844;2024-02-23T07:42:14;6.88;;;2.92;;
49910;SDS011;35803;53.096;5.844;2024-02-23T07:45:04;6.82;;;2.70;;
49910;SDS011;35803;53.096;5.844;2024-02-23T07:47:50;5.65;;;3.03;;
49910;SDS011;35803;53.096;5.844;2024-02-23T07:50:36;7.63;;;3.58;;
49910;SDS011;35803;53.096;5.844;2024-02-23T07:53:21;4.70;;;3.22;;
49910;SDS011;35803;53.096;5.844;2024-02-23T07:56:07;8.57;;;3.78;;
49910;SDS011;35803;53.096;5.844;2024-02-23T07:58:53;5.78;;;3.33;;
49910;SDS011;35803;53.096;5.844;2024-02-23T08:01:39;8.00;;;4.53;;
49910;SDS011;35803;53.096;5.844;2024-02-23T08:04:25;8.35;;;3.90;;
49910;SDS011;35803;53.096;5.844;2024-02-23T08:07:11;7.57;;;4.53;;
49910;SDS011;35803;53.096;5.844;2024-02-23T08:09:57;8.52;;;4.18;;
49910;SDS011;35803;53.096;5.844;2024-02-23T08:12:42;6.85;;;4.00;;
49910;SDS011;35803;53.096;5.844;2024-02-23T08:15:28;10.93;;;4.72;;
49910;SDS011;35803;53.096;5.844;2024-02-23T08:18:14;8.27;;;4.80;;
49910;SDS011;35803;53.096;5.844;2024-02-23T08:21:00;9.88;;;4.68;;
49910;SDS011;35803;53.096;5.844;2024-02-23T08:23:48;10.57;;;4.78;;
49910;SDS011;35803;53.096;5.844;2024-02-23T08:26:33;7.95;;;4.45;;
49910;SDS011;35803;53.096;5.844;2024-02-23T08:29:19;6.43;;;3.92;;
49910;SDS011;35803;53.096;5.844;2024-02-23T08:32:05;5.72;;;3.97;;
49910;SDS011;35803;53.096;5.844;2024-02-23T08:34:51;7.75;;;4.15;;
49910;SDS011;35803;53.096;5.844;2024-02-23T08:37:44;6.57;;;3.45;;
49910;SDS011;35803;53.096;5.844;2024-02-23T08:40:30;4.15;;;3.08;;
49910;SDS011;35803;53.096;5.844;2024-02-23T08:43:16;7.10;;;3.45;;
49910;SDS011;35803;53.096;5.844;2024-02-23T08:46:02;6.45;;;3.58;;
49910;SDS011;35803;53.096;5.844;2024-02-23T08:48:48;5.22;;;3.20;;
49910;SDS011;35803;53.096;5.844;2024-02-23T08:51:34;6.05;;;2.85;;
49910;SDS011;35803;53.096;5.844;2024-02-23T08:54:19;7.10;;;3.08;;
49910;SDS011;35803;53.096;5.844;2024-02-23T08:57:05;10.73;;;3.58;;
49910;SDS011;35803;53.096;5.844;2024-02-23T08:59:51;5.43;;;2.70;;
49910;SDS011;35803;53.096;5.844;2024-02-23T09:02:36;8.13;;;2.80;;
49910;SDS011;35803;53.096;5.844;2024-02-23T09:05:23;4.35;;;2.28;;
49910;SDS011;35803;53.096;5.844;2024-02-23T09:08:09;3.97;;;2.40;;
49910;SDS011;35803;53.096;5.844;2024-02-23T09:10:55;4.85;;;2.17;;
49910;SDS011;35803;53.096;5.844;2024-02-23T09:13:41;5.72;;;1.90;;
49910;SDS011;35803;53.096;5.844;2024-02-23T09:16:27;2.63;;;1.88;;
49910;SDS011;35803;53.096;5.844;2024-02-23T09:19:13;3.53;;;2.33;;
49910;SDS011;35803;53.096;5.844;2024-02-23T09:21:58;4.28;;;1.75;;
49910;SDS011;35803;53.096;5.844;2024-02-23T09:24:45;2.75;;;1.50;;
49910;SDS011;35803;53.096;5.844;2024-02-23T09:27:31;3.20;;;1.77;;
49910;SDS011;35803;53.096;5.844;2024-02-23T09:30:17;3.25;;;1.30;;
49910;SDS011;35803;53.096;5.844;2024-02-23T09:33:03;3.67;;;1.48;;
49910;SDS011;35803;53.096;5.844;2024-02-23T09:35:49;7.82;;;1.83;;
49910;SDS011;35803;53.096;5.844;2024-02-23T09:38:34;4.18;;;1.42;;
49910;SDS011;35803;53.096;5.844;2024-02-23T09:41:22;4.82;;;1.58;;
49910;SDS011;35803;53.096;5.844;2024-02-23T09:44:08;4.50;;;1.38;;
49910;SDS011;35803;53.096;5.844;2024-02-23T09:46:55;4.13;;;1.80;;
49910;SDS011;35803;53.096;5.844;2024-02-23T09:49:41;2.90;;;1.48;;
49910;SDS011;35803;53.096;5.844;2024-02-23T09:52:26;1.65;;;1.45;;
49910;SDS011;35803;53.096;5.844;2024-02-23T09:55:14;2.95;;;1.40;;
49910;SDS011;35803;53.096;5.844;2024-02-23T09:58:00;2.22;;;1.40;;
49910;SDS011;35803;53.096;5.844;2024-02-23T10:00:46;4.18;;;1.27;;
49910;SDS011;35803;53.096;5.844;2024-02-23T10:03:32;5.78;;;1.60;;
49910;SDS011;35803;53.096;5.844;2024-02-23T10:06:18;4.28;;;1.63;;
49910;SDS011;35803;53.096;5.844;2024-02-23T10:09:04;4.40;;;1.70;;
49910;SDS011;35803;53.096;5.844;2024-02-23T10:11:53;2.55;;;1.70;;
49910;SDS011;35803;53.096;5.844;2024-02-23T10:14:41;1.95;;;1.70;;
49910;SDS011;35803;53.096;5.844;2024-02-23T10:17:27;9.25;;;2.33;;
49910;SDS011;35803;53.096;5.844;2024-02-23T10:20:12;2.72;;;1.77;;
49910;SDS011;35803;53.096;5.844;2024-02-23T10:22:58;3.85;;;1.90;;
49910;SDS011;35803;53.096;5.844;2024-02-23T10:25:47;2.40;;;1.90;;
49910;SDS011;35803;53.096;5.844;2024-02-23T10:28:33;4.93;;;1.92;;
49910;SDS011;35803;53.096;5.844;2024-02-23T10:31:20;1.90;;;1.50;;
49910;SDS011;35803;53.096;5.844;2024-02-23T10:34:07;5.55;;;1.92;;
49910;SDS011;35803;53.096;5.844;2024-02-23T10:36:58;4.45;;;1.52;;
49910;SDS011;35803;53.096;5.844;2024-02-23T10:39:45;5.93;;;1.90;;
49910;SDS011;35803;53.096;5.844;2024-02-23T10:42:33;2.50;;;1.40;;
49910;SDS011;35803;53.096;5.844;2024-02-23T10:45:19;3.30;;;1.60;;
49910;SDS011;35803;53.096;5.844;2024-02-23T10:48:08;3.00;;;1.30;;
49910;SDS011;35803;53.096;5.844;2024-02-23T10:50:55;5.70;;;1.65;;
49910;SDS011;35803;53.096;5.844;2024-02-23T10:53:42;5.00;;;1.60;;
49910;SDS011;35803;53.096;5.844;2024-02-23T10:56:29;2.33;;;1.55;;
49910;SDS011;35803;53.096;5.844;2024-02-23T10:59:15;4.28;;;1.77;;
49910;SDS011;35803;53.096;5.844;2024-02-23T11:02:03;7.68;;;2.75;;
49910;SDS011;35803;53.096;5.844;2024-02-23T11:04:49;5.35;;;2.08;;
49910;SDS011;35803;53.096;5.844;2024-02-23T11:07:37;4.13;;;2.20;;
49910;SDS011;35803;53.096;5.844;2024-02-23T11:10:24;5.00;;;2.05;;
49910;SDS011;35803;53.096;5.844;2024-02-23T11:13:13;3.92;;;2.38;;
49910;SDS011;35803;53.096;5.844;2024-02-23T11:16:07;3.70;;;1.98;;
49910;SDS011;35803;53.096;5.844;2024-02-23T11:19:06;4.55;;;2.05;;
49910;SDS011;35803;53.096;5.844;2024-02-23T11:21:56;2.92;;;1.75;;
49910;SDS011;35803;53.096;5.844;2024-02-23T11:24:44;4.85;;;1.92;;
49910;SDS011;35803;53.096;5.844;2024-02-23T11:27:31;5.35;;;2.00;;
49910;SDS011;35803;53.096;5.844;2024-02-23T11:30:17;3.83;;;1.70;;
49910;SDS011;35803;53.096;5.844;2024-02-23T11:33:04;6.55;;;2.25;;
49910;SDS011;35803;53.096;5.844;2024-02-23T11:35:53;4.20;;;1.75;;
49910;SDS011;35803;53.096;5.844;2024-02-23T11:38:40;3.78;;;1.88;;
49910;SDS011;35803;53.096;5.844;2024-02-23T11:41:26;4.45;;;1.70;;
49910;SDS011;35803;53.096;5.844;2024-02-23T11:44:13;5.05;;;1.60;;
49910;SDS011;35803;53.096;5.844;2024-02-23T11:46:59;1.65;;;1.52;;
49910;SDS011;35803;53.096;5.844;2024-02-23T11:49:45;4.25;;;1.80;;
49910;SDS011;35803;53.096;5.844;2024-02-23T11:52:31;2.17;;;1.50;;
49910;SDS011;35803;53.096;5.844;2024-02-23T11:55:20;4.05;;;1.77;;
49910;SDS011;35803;53.096;5.844;2024-02-23T11:58:08;5.28;;;1.90;;
49910;SDS011;35803;53.096;5.844;2024-02-23T12:00:54;3.78;;;1.60;;
49910;SDS011;35803;53.096;5.844;2024-02-23T12:03:40;1.50;;;1.38;;
49910;SDS011;35803;53.096;5.844;2024-02-23T12:06:27;2.90;;;1.60;;
49910;SDS011;35803;53.096;5.844;2024-02-23T12:09:16;3.88;;;1.67;;
49910;SDS011;35803;53.096;5.844;2024-02-23T12:12:01;2.72;;;1.70;;
49910;SDS011;35803;53.096;5.844;2024-02-23T12:14:47;6.95;;;1.80;;
49910;SDS011;35803;53.096;5.844;2024-02-23T12:17:35;4.45;;;2.05;;
49910;SDS011;35803;53.096;5.844;2024-02-23T12:20:22;2.25;;;1.60;;
49910;SDS011;35803;53.096;5.844;2024-02-23T12:23:08;4.60;;;1.90;;
49910;SDS011;35803;53.096;5.844;2024-02-23T12:25:59;5.28;;;2.20;;
49910;SDS011;35803;53.096;5.844;2024-02-23T12:28:45;6.40;;;1.63;;
49910;SDS011;35803;53.096;5.844;2024-02-23T12:31:32;3.88;;;1.73;;
49910;SDS011;35803;53.096;5.844;2024-02-23T12:34:18;1.98;;;1.50;;
49910;SDS011;35803;53.096;5.844;2024-02-23T12:37:06;3.67;;;1.63;;
49910;SDS011;35803;53.096;5.844;2024-02-23T12:39:53;3.17;;;1.55;;
49910;SDS011;35803;53.096;5.844;2024-02-23T12:42:39;2.83;;;1.58;;
49910;SDS011;35803;53.096;5.844;2024-02-23T12:45:25;2.00;;;1.13;;
49910;SDS011;35803;53.096;5.844;2024-02-23T12:48:11;3.00;;;1.20;;
49910;SDS011;35803;53.096;5.844;2024-02-23T12:50:56;3.05;;;1.20;;
49910;SDS011;35803;53.096;5.844;2024-02-23T12:53:42;5.00;;;1.27;;
49910;SDS011;35803;53.096;5.844;2024-02-23T12:56:29;4.10;;;1.50;;
49910;SDS011;35803;53.096;5.844;2024-02-23T12:59:15;4.13;;;1.88;;
49910;SDS011;35803;53.096;5.844;2024-02-23T13:02:01;2.30;;;1.55;;
49910;SDS011;35803;53.096;5.844;2024-02-23T13:04:47;4.57;;;1.73;;
49910;SDS011;35803;53.096;5.844;2024-02-23T13:07:36;2.58;;;1.20;;
49910;SDS011;35803;53.096;5.844;2024-02-23T13:10:24;6.35;;;1.65;;
49910;SDS011;35803;53.096;5.844;2024-02-23T13:13:10;3.17;;;1.35;;
49910;SDS011;35803;53.096;5.844;2024-02-23T13:15:55;4.40;;;1.40;;
49910;SDS011;35803;53.096;5.844;2024-02-23T13:18:42;1.88;;;1.10;;
49910;SDS011;35803;53.096;5.844;2024-02-23T13:21:29;2.33;;;1.00;;
49910;SDS011;35803;53.096;5.844;2024-02-23T13:24:15;4.57;;;1.30;;
49910;SDS011;35803;53.096;5.844;2024-02-23T13:27:01;5.00;;;1.00;;
49910;SDS011;35803;53.096;5.844;2024-02-23T13:29:47;3.03;;;0.70;;
49910;SDS011;35803;53.096;5.844;2024-02-23T13:32:33;2.58;;;0.90;;
49910;SDS011;35803;53.096;5.844;2024-02-23T13:35:19;2.50;;;1.27;;
49910;SDS011;35803;53.096;5.844;2024-02-23T13:38:05;5.22;;;1.30;;
49910;SDS011;35803;53.096;5.844;2024-02-23T13:40:50;3.75;;;1.00;;
49910;SDS011;35803;53.096;5.844;2024-02-23T13:43:37;0.75;;;0.75;;
49910;SDS011;35803;53.096;5.844;2024-02-23T13:46:23;1.67;;;0.70;;
49910;SDS011;35803;53.096;5.844;2024-02-23T13:49:10;4.05;;;1.20;;
49910;SDS011;35803;53.096;5.844;2024-02-23T13:51:58;3.40;;;1.00;;
49910;SDS011;35803;53.096;5.844;2024-02-23T13:54:44;4.03;;;0.98;;
49910;SDS011;35803;53.096;5.844;2024-02-23T13:57:30;1.08;;;0.65;;
49910;SDS011;35803;53.096;5.844;2024-02-23T14:00:16;2.22;;;0.93;;
49910;SDS011;35803;53.096;5.844;2024-02-23T14:03:02;1.05;;;0.80;;
49910;SDS011;35803;53.096;5.844;2024-02-23T14:05:48;6.32;;;1.08;;
49910;SDS011;35803;53.096;5.844;2024-02-23T14:08:34;3.58;;;1.17;;
49910;SDS011;35803;53.096;5.844;2024-02-23T14:11:22;7.15;;;1.30;;
49910;SDS011;35803;53.096;5.844;2024-02-23T14:14:08;5.95;;;1.50;;
49910;SDS011;35803;53.096;5.844;2024-02-23T14:16:57;6.88;;;1.48;;
49910;SDS011;35803;53.096;5.844;2024-02-23T14:19:43;6.90;;;1.52;;
49910;SDS011;35803;53.096;5.844;2024-02-23T14:22:28;5.93;;;1.40;;
49910;SDS011;35803;53.096;5.844;2024-02-23T14:25:14;7.78;;;1.95;;
49910;SDS011;35803;53.096;5.844;2024-02-23T14:28:00;5.40;;;1.40;;
49910;SDS011;35803;53.096;5.844;2024-02-23T14:30:46;3.15;;;1.60;;
49910;SDS011;35803;53.096;5.844;2024-02-23T14:33:32;5.82;;;2.17;;
49910;SDS011;35803;53.096;5.844;2024-02-23T14:36:18;2.40;;;1.20;;
49910;SDS011;35803;53.096;5.844;2024-02-23T14:39:04;5.95;;;1.13;;
49910;SDS011;35803;53.096;5.844;2024-02-23T14:41:50;3.53;;;1.20;;
49910;SDS011;35803;53.096;5.844;2024-02-23T14:44:36;3.03;;;1.25;;
49910;SDS011;35803;53.096;5.844;2024-02-23T14:47:22;2.55;;;1.05;;
49910;SDS011;35803;53.096;5.844;2024-02-23T14:50:07;4.68;;;1.27;;
49910;SDS011;35803;53.096;5.844;2024-02-23T14:52:53;3.03;;;1.13;;
49910;SDS011;35803;53.096;5.844;2024-02-23T14:55:39;4.70;;;1.10;;
49910;SDS011;35803;53.096;5.844;2024-02-23T14:58:25;2.47;;;0.82;;
49910;SDS011;35803;53.096;5.844;2024-02-23T15:01:11;2.13;;;0.93;;
49910;SDS011;35803;53.096;5.844;2024-02-23T15:03:57;3.40;;;1.00;;
49910;SDS011;35803;53.096;5.844;2024-02-23T15:06:43;2.47;;;1.10;;
49910;SDS011;35803;53.096;5.844;2024-02-23T15:09:29;4.35;;;1.30;;
49910;SDS011;35803;53.096;5.844;2024-02-23T15:12:18;3.35;;;1.08;;
49910;SDS011;35803;53.096;5.844;2024-02-23T15:15:04;4.10;;;1.70;;
49910;SDS011;35803;53.096;5.844;2024-02-23T15:17:51;4.95;;;1.45;;
49910;SDS011;35803;53.096;5.844;2024-02-23T15:20:38;3.50;;;1.42;;
49910;SDS011;35803;53.096;5.844;2024-02-23T15:23:24;6.95;;;1.65;;
49910;SDS011;35803;53.096;5.844;2024-02-23T15:26:10;6.93;;;1.83;;
49910;SDS011;35803;53.096;5.844;2024-02-23T15:28:55;5.38;;;1.30;;
49910;SDS011;35803;53.096;5.844;2024-02-23T15:31:41;5.38;;;1.50;;
49910;SDS011;35803;53.096;5.844;2024-02-23T15:34:27;7.13;;;1.60;;
49910;SDS011;35803;53.096;5.844;2024-02-23T15:37:13;4.38;;;1.58;;
49910;SDS011;35803;53.096;5.844;2024-02-23T15:39:59;4.30;;;1.27;;
49910;SDS011;35803;53.096;5.844;2024-02-23T15:42:45;4.60;;;1.38;;
49910;SDS011;35803;53.096;5.844;2024-02-23T15:45:30;4.95;;;1.40;;
49910;SDS011;35803;53.096;5.844;2024-02-23T15:48:16;5.07;;;1.42;;
49910;SDS011;35803;53.096;5.844;2024-02-23T15:51:02;3.10;;;1.30;;
49910;SDS011;35803;53.096;5.844;2024-02-23T15:53:48;3.10;;;1.40;;
49910;SDS011;35803;53.096;5.844;2024-02-23T15:56:34;4.30;;;1.15;;
49910;SDS011;35803;53.096;5.844;2024-02-23T15:59:21;3.65;;;1.23;;
49910;SDS011;35803;53.096;5.844;2024-02-23T16:02:07;3.50;;;1.13;;
49910;SDS011;35803;53.096;5.844;2024-02-23T16:04:53;4.53;;;0.90;;
49910;SDS011;35803;53.096;5.844;2024-02-23T16:07:39;2.95;;;0.90;;
49910;SDS011;35803;53.096;5.844;2024-02-23T16:10:24;5.32;;;1.00;;
49910;SDS011;35803;53.096;5.844;2024-02-23T16:13:10;3.40;;;1.10;;
49910;SDS011;35803;53.096;5.844;2024-02-23T16:15:56;5.72;;;1.42;;
49910;SDS011;35803;53.096;5.844;2024-02-23T16:18:42;6.47;;;1.40;;
49910;SDS011;35803;53.096;5.844;2024-02-23T16:21:28;7.22;;;1.25;;
49910;SDS011;35803;53.096;5.844;2024-02-23T16:24:14;5.22;;;1.23;;
49910;SDS011;35803;53.096;5.844;2024-02-23T16:27:03;6.85;;;1.70;;
49910;SDS011;35803;53.096;5.844;2024-02-23T16:29:49;4.38;;;1.70;;
49910;SDS011;35803;53.096;5.844;2024-02-23T16:32:35;6.82;;;2.25;;
49910;SDS011;35803;53.096;5.844;2024-02-23T16:35:21;3.88;;;1.60;;
49910;SDS011;35803;53.096;5.844;2024-02-23T16:38:06;3.67;;;1.10;;
49910;SDS011;35803;53.096;5.844;2024-02-23T16:40:52;4.90;;;1.70;;
49910;SDS011;35803;53.096;5.844;2024-02-23T16:43:38;5.47;;;1.60;;